sensor_id;sensor_type;location;lat;lon;timestamp;P1;durP1;ratioP1;P2;durP2;ratioP2
32032;SDS011;31720;52.638;9.216;2023-11-19T00:00:26;1.65;;;1.20;;
32032;SDS011;31720;52.638;9.216;2023-11-19T00:03:28;1.40;;;1.10;;
32032;SDS011;31720;52.638;9.216;2023-11-19T00:06:29;1.45;;;0.95;;
32032;SDS011;31720;52.638;9.216;2023-11-19T00:09:32;1.63;;;1.38;;
32032;SDS011;31720;52.638;9.216;2023-11-19T00:12:33;4.78;;;1.23;;
32032;SDS011;31720;52.638;9.216;2023-11-19T00:15:35;2.30;;;1.48;;
32032;SDS011;31720;52.638;9.216;2023-11-19T00:18:36;1.45;;;1.33;;
32032;SDS011;31720;52.638;9.216;2023-11-19T00:21:38;2.33;;;1.50;;
32032;SDS011;31720;52.638;9.216;2023-11-19T00:24:42;2.20;;;1.40;;
32032;SDS011;31720;52.638;9.216;2023-11-19T00:27:44;3.17;;;1.73;;
32032;SDS011;31720;52.638;9.216;2023-11-19T00:30:46;2.35;;;1.33;;
32032;SDS011;31720;52.638;9.216;2023-11-19T00:33:47;1.90;;;1.25;;
32032;SDS011;31720;52.638;9.216;2023-11-19T00:36:49;1.45;;;1.20;;
32032;SDS011;31720;52.638;9.216;2023-11-19T00:39:51;1.67;;;1.35;;
32032;SDS011;31720;52.638;9.216;2023-11-19T00:42:53;1.85;;;1.08;;
32032;SDS011;31720;52.638;9.216;2023-11-19T00:45:54;2.67;;;1.17;;
32032;SDS011;31720;52.638;9.216;2023-11-19T00:48:55;1.23;;;0.98;;
32032;SDS011;31720;52.638;9.216;2023-11-19T00:51:59;2.15;;;1.30;;
32032;SDS011;31720;52.638;9.216;2023-11-19T00:55:03;1.45;;;1.13;;
32032;SDS011;31720;52.638;9.216;2023-11-19T00:58:05;2.70;;;1.20;;
32032;SDS011;31720;52.638;9.216;2023-11-19T01:01:07;1.30;;;1.15;;
32032;SDS011;31720;52.638;9.216;2023-11-19T01:04:08;1.75;;;1.23;;
32032;SDS011;31720;52.638;9.216;2023-11-19T01:07:10;1.05;;;0.93;;
32032;SDS011;31720;52.638;9.216;2023-11-19T01:10:14;3.40;;;1.13;;
32032;SDS011;31720;52.638;9.216;2023-11-19T01:13:16;2.58;;;1.40;;
32032;SDS011;31720;52.638;9.216;2023-11-19T01:16:17;1.83;;;1.55;;
32032;SDS011;31720;52.638;9.216;2023-11-19T01:19:19;2.95;;;1.58;;
32032;SDS011;31720;52.638;9.216;2023-11-19T01:22:22;3.05;;;1.48;;
32032;SDS011;31720;52.638;9.216;2023-11-19T01:25:25;4.60;;;1.83;;
32032;SDS011;31720;52.638;9.216;2023-11-19T01:28:26;3.40;;;1.80;;
32032;SDS011;31720;52.638;9.216;2023-11-19T01:31:28;3.17;;;1.77;;
32032;SDS011;31720;52.638;9.216;2023-11-19T01:34:29;2.60;;;1.65;;
32032;SDS011;31720;52.638;9.216;2023-11-19T01:37:31;2.60;;;1.55;;
32032;SDS011;31720;52.638;9.216;2023-11-19T01:40:33;3.45;;;2.20;;
32032;SDS011;31720;52.638;9.216;2023-11-19T01:43:35;4.82;;;2.30;;
32032;SDS011;31720;52.638;9.216;2023-11-19T01:46:39;4.38;;;2.20;;
32032;SDS011;31720;52.638;9.216;2023-11-19T01:49:41;5.50;;;2.20;;
32032;SDS011;31720;52.638;9.216;2023-11-19T01:52:43;3.97;;;2.35;;
32032;SDS011;31720;52.638;9.216;2023-11-19T01:55:46;4.75;;;2.25;;
32032;SDS011;31720;52.638;9.216;2023-11-19T01:58:48;3.28;;;1.88;;
32032;SDS011;31720;52.638;9.216;2023-11-19T02:01:51;3.20;;;2.30;;
32032;SDS011;31720;52.638;9.216;2023-11-19T02:04:52;5.65;;;2.10;;
32032;SDS011;31720;52.638;9.216;2023-11-19T02:07:54;3.08;;;1.95;;
32032;SDS011;31720;52.638;9.216;2023-11-19T02:10:57;6.72;;;2.05;;
32032;SDS011;31720;52.638;9.216;2023-11-19T02:13:58;2.38;;;1.67;;
32032;SDS011;31720;52.638;9.216;2023-11-19T02:16:59;3.15;;;2.03;;
32032;SDS011;31720;52.638;9.216;2023-11-19T02:20:01;2.63;;;1.80;;
32032;SDS011;31720;52.638;9.216;2023-11-19T02:23:03;3.20;;;1.77;;
32032;SDS011;31720;52.638;9.216;2023-11-19T02:26:10;3.20;;;1.95;;
32032;SDS011;31720;52.638;9.216;2023-11-19T02:29:17;1.85;;;1.55;;
32032;SDS011;31720;52.638;9.216;2023-11-19T02:32:18;4.10;;;1.77;;
32032;SDS011;31720;52.638;9.216;2023-11-19T02:35:20;3.30;;;1.83;;
32032;SDS011;31720;52.638;9.216;2023-11-19T02:38:22;2.33;;;1.67;;
32032;SDS011;31720;52.638;9.216;2023-11-19T02:41:24;1.92;;;1.67;;
32032;SDS011;31720;52.638;9.216;2023-11-19T02:44:27;2.25;;;1.90;;
32032;SDS011;31720;52.638;9.216;2023-11-19T02:47:30;2.53;;;1.63;;
32032;SDS011;31720;52.638;9.216;2023-11-19T02:50:31;3.55;;;1.85;;
32032;SDS011;31720;52.638;9.216;2023-11-19T02:53:33;1.90;;;1.48;;
32032;SDS011;31720;52.638;9.216;2023-11-19T02:56:34;2.72;;;1.55;;
32032;SDS011;31720;52.638;9.216;2023-11-19T02:59:39;5.47;;;2.15;;
32032;SDS011;31720;52.638;9.216;2023-11-19T03:02:43;3.58;;;2.47;;
32032;SDS011;31720;52.638;9.216;2023-11-19T03:05:46;4.68;;;3.08;;
32032;SDS011;31720;52.638;9.216;2023-11-19T03:08:48;6.45;;;3.58;;
32032;SDS011;31720;52.638;9.216;2023-11-19T03:11:49;5.00;;;3.35;;
32032;SDS011;31720;52.638;9.216;2023-11-19T03:14:52;6.10;;;3.85;;
32032;SDS011;31720;52.638;9.216;2023-11-19T03:17:53;6.72;;;4.20;;
32032;SDS011;31720;52.638;9.216;2023-11-19T03:20:55;8.77;;;4.68;;
32032;SDS011;31720;52.638;9.216;2023-11-19T03:23:57;7.63;;;4.32;;
32032;SDS011;31720;52.638;9.216;2023-11-19T03:27:00;6.68;;;4.10;;
32032;SDS011;31720;52.638;9.216;2023-11-19T03:30:03;9.43;;;5.10;;
32032;SDS011;31720;52.638;9.216;2023-11-19T03:33:05;9.55;;;4.28;;
32032;SDS011;31720;52.638;9.216;2023-11-19T03:36:06;8.52;;;4.95;;
32032;SDS011;31720;52.638;9.216;2023-11-19T03:39:09;8.15;;;4.90;;
32032;SDS011;31720;52.638;9.216;2023-11-19T03:42:11;10.10;;;5.03;;
32032;SDS011;31720;52.638;9.216;2023-11-19T03:45:14;10.63;;;5.28;;
32032;SDS011;31720;52.638;9.216;2023-11-19T03:48:16;9.75;;;5.93;;
32032;SDS011;31720;52.638;9.216;2023-11-19T03:51:18;12.82;;;6.35;;
32032;SDS011;31720;52.638;9.216;2023-11-19T03:54:20;12.57;;;6.20;;
32032;SDS011;31720;52.638;9.216;2023-11-19T03:57:23;13.25;;;7.00;;
32032;SDS011;31720;52.638;9.216;2023-11-19T04:00:26;15.95;;;6.80;;
32032;SDS011;31720;52.638;9.216;2023-11-19T04:03:27;13.88;;;7.32;;
32032;SDS011;31720;52.638;9.216;2023-11-19T04:06:29;15.07;;;7.70;;
32032;SDS011;31720;52.638;9.216;2023-11-19T04:09:30;15.68;;;6.97;;
32032;SDS011;31720;52.638;9.216;2023-11-19T04:12:32;12.90;;;6.78;;
32032;SDS011;31720;52.638;9.216;2023-11-19T04:15:35;15.45;;;7.80;;
32032;SDS011;31720;52.638;9.216;2023-11-19T04:18:37;13.70;;;7.35;;
32032;SDS011;31720;52.638;9.216;2023-11-19T04:21:39;14.20;;;7.32;;
32032;SDS011;31720;52.638;9.216;2023-11-19T04:24:41;14.27;;;7.68;;
32032;SDS011;31720;52.638;9.216;2023-11-19T04:27:45;12.70;;;7.00;;
32032;SDS011;31720;52.638;9.216;2023-11-19T04:30:49;12.38;;;6.75;;
32032;SDS011;31720;52.638;9.216;2023-11-19T04:33:50;13.68;;;7.78;;
32032;SDS011;31720;52.638;9.216;2023-11-19T04:36:52;12.88;;;7.15;;
32032;SDS011;31720;52.638;9.216;2023-11-19T04:39:54;14.32;;;7.38;;
32032;SDS011;31720;52.638;9.216;2023-11-19T04:42:55;13.70;;;7.82;;
32032;SDS011;31720;52.638;9.216;2023-11-19T04:45:58;15.27;;;7.30;;
32032;SDS011;31720;52.638;9.216;2023-11-19T04:48:59;15.45;;;7.55;;
32032;SDS011;31720;52.638;9.216;2023-11-19T04:52:00;13.80;;;7.35;;
32032;SDS011;31720;52.638;9.216;2023-11-19T04:55:03;17.63;;;7.88;;
32032;SDS011;31720;52.638;9.216;2023-11-19T04:58:04;14.52;;;7.72;;
32032;SDS011;31720;52.638;9.216;2023-11-19T05:01:13;16.05;;;8.63;;
32032;SDS011;31720;52.638;9.216;2023-11-19T05:04:15;17.13;;;8.88;;
32032;SDS011;31720;52.638;9.216;2023-11-19T05:07:18;23.17;;;8.48;;
32032;SDS011;31720;52.638;9.216;2023-11-19T05:10:20;13.38;;;7.88;;
32032;SDS011;31720;52.638;9.216;2023-11-19T05:13:22;17.95;;;8.38;;
32032;SDS011;31720;52.638;9.216;2023-11-19T05:16:24;13.10;;;8.15;;
32032;SDS011;31720;52.638;9.216;2023-11-19T05:19:26;18.85;;;8.90;;
32032;SDS011;31720;52.638;9.216;2023-11-19T05:22:27;20.35;;;9.57;;
32032;SDS011;31720;52.638;9.216;2023-11-19T05:25:29;17.00;;;9.30;;
32032;SDS011;31720;52.638;9.216;2023-11-19T05:28:30;25.08;;;9.38;;
32032;SDS011;31720;52.638;9.216;2023-11-19T05:31:33;22.63;;;9.18;;
32032;SDS011;31720;52.638;9.216;2023-11-19T05:34:35;19.77;;;9.13;;
32032;SDS011;31720;52.638;9.216;2023-11-19T05:37:36;18.63;;;8.32;;
32032;SDS011;31720;52.638;9.216;2023-11-19T05:40:38;19.88;;;8.93;;
32032;SDS011;31720;52.638;9.216;2023-11-19T05:43:39;20.23;;;8.60;;
32032;SDS011;31720;52.638;9.216;2023-11-19T05:46:43;26.25;;;10.20;;
32032;SDS011;31720;52.638;9.216;2023-11-19T05:49:44;19.13;;;7.78;;
32032;SDS011;31720;52.638;9.216;2023-11-19T05:52:46;18.58;;;8.15;;
32032;SDS011;31720;52.638;9.216;2023-11-19T05:55:47;23.98;;;8.35;;
32032;SDS011;31720;52.638;9.216;2023-11-19T05:58:54;19.45;;;7.70;;
32032;SDS011;31720;52.638;9.216;2023-11-19T06:01:58;16.42;;;6.28;;
32032;SDS011;31720;52.638;9.216;2023-11-19T06:04:59;13.82;;;5.97;;
32032;SDS011;31720;52.638;9.216;2023-11-19T06:08:01;15.05;;;5.63;;
32032;SDS011;31720;52.638;9.216;2023-11-19T06:11:03;12.68;;;6.32;;
32032;SDS011;31720;52.638;9.216;2023-11-19T06:14:05;19.17;;;5.53;;
32032;SDS011;31720;52.638;9.216;2023-11-19T06:17:08;18.42;;;6.20;;
32032;SDS011;31720;52.638;9.216;2023-11-19T06:20:11;15.45;;;5.00;;
32032;SDS011;31720;52.638;9.216;2023-11-19T06:23:14;18.00;;;5.10;;
32032;SDS011;31720;52.638;9.216;2023-11-19T06:26:15;15.60;;;4.80;;
32032;SDS011;31720;52.638;9.216;2023-11-19T06:29:17;19.20;;;4.45;;
32032;SDS011;31720;52.638;9.216;2023-11-19T06:32:21;13.15;;;4.40;;
32032;SDS011;31720;52.638;9.216;2023-11-19T06:35:22;22.50;;;4.97;;
32032;SDS011;31720;52.638;9.216;2023-11-19T06:38:24;13.45;;;4.38;;
32032;SDS011;31720;52.638;9.216;2023-11-19T06:41:25;27.88;;;4.57;;
32032;SDS011;31720;52.638;9.216;2023-11-19T06:44:26;18.30;;;4.32;;
32032;SDS011;31720;52.638;9.216;2023-11-19T06:47:29;13.48;;;3.20;;
32032;SDS011;31720;52.638;9.216;2023-11-19T06:50:31;24.75;;;4.68;;
32032;SDS011;31720;52.638;9.216;2023-11-19T06:53:32;14.20;;;3.25;;
32032;SDS011;31720;52.638;9.216;2023-11-19T06:56:34;24.90;;;3.72;;
32032;SDS011;31720;52.638;9.216;2023-11-19T06:59:37;21.40;;;4.50;;
32032;SDS011;31720;52.638;9.216;2023-11-19T07:02:39;19.58;;;4.32;;
32032;SDS011;31720;52.638;9.216;2023-11-19T07:05:41;27.52;;;4.28;;
32032;SDS011;31720;52.638;9.216;2023-11-19T07:08:43;20.17;;;3.53;;
32032;SDS011;31720;52.638;9.216;2023-11-19T07:11:45;14.50;;;3.22;;
32032;SDS011;31720;52.638;9.216;2023-11-19T07:14:47;28.42;;;4.72;;
32032;SDS011;31720;52.638;9.216;2023-11-19T07:17:49;28.38;;;3.88;;
32032;SDS011;31720;52.638;9.216;2023-11-19T07:20:51;22.40;;;3.63;;
32032;SDS011;31720;52.638;9.216;2023-11-19T07:23:53;18.55;;;3.28;;
32032;SDS011;31720;52.638;9.216;2023-11-19T07:26:55;32.42;;;3.33;;
32032;SDS011;31720;52.638;9.216;2023-11-19T07:29:56;33.92;;;4.25;;
32032;SDS011;31720;52.638;9.216;2023-11-19T07:32:59;23.25;;;4.20;;
32032;SDS011;31720;52.638;9.216;2023-11-19T07:36:00;25.45;;;3.17;;
32032;SDS011;31720;52.638;9.216;2023-11-19T07:39:02;20.25;;;3.15;;
32032;SDS011;31720;52.638;9.216;2023-11-19T07:42:05;16.98;;;3.00;;
32032;SDS011;31720;52.638;9.216;2023-11-19T07:45:07;15.77;;;3.40;;
32032;SDS011;31720;52.638;9.216;2023-11-19T07:48:10;22.65;;;3.78;;
32032;SDS011;31720;52.638;9.216;2023-11-19T07:51:13;17.58;;;3.67;;
32032;SDS011;31720;52.638;9.216;2023-11-19T07:54:14;13.60;;;3.50;;
32032;SDS011;31720;52.638;9.216;2023-11-19T07:57:16;19.67;;;3.08;;
32032;SDS011;31720;52.638;9.216;2023-11-19T08:00:17;19.38;;;3.63;;
32032;SDS011;31720;52.638;9.216;2023-11-19T08:03:21;26.60;;;3.05;;
32032;SDS011;31720;52.638;9.216;2023-11-19T08:06:23;21.05;;;3.17;;
32032;SDS011;31720;52.638;9.216;2023-11-19T08:09:24;25.98;;;3.15;;
32032;SDS011;31720;52.638;9.216;2023-11-19T08:12:25;22.40;;;4.00;;
32032;SDS011;31720;52.638;9.216;2023-11-19T08:15:27;17.13;;;3.13;;
32032;SDS011;31720;52.638;9.216;2023-11-19T08:18:30;21.98;;;3.75;;
32032;SDS011;31720;52.638;9.216;2023-11-19T08:21:31;20.60;;;3.03;;
32032;SDS011;31720;52.638;9.216;2023-11-19T08:24:33;32.25;;;3.70;;
32032;SDS011;31720;52.638;9.216;2023-11-19T08:27:34;21.40;;;2.78;;
32032;SDS011;31720;52.638;9.216;2023-11-19T08:30:35;26.33;;;3.65;;
32032;SDS011;31720;52.638;9.216;2023-11-19T08:33:38;26.80;;;3.50;;
32032;SDS011;31720;52.638;9.216;2023-11-19T08:36:40;25.83;;;5.30;;
32032;SDS011;31720;52.638;9.216;2023-11-19T08:39:41;22.45;;;3.03;;
32032;SDS011;31720;52.638;9.216;2023-11-19T08:42:43;30.83;;;3.80;;
32032;SDS011;31720;52.638;9.216;2023-11-19T08:45:44;28.80;;;3.95;;
32032;SDS011;31720;52.638;9.216;2023-11-19T08:48:47;20.92;;;2.85;;
32032;SDS011;31720;52.638;9.216;2023-11-19T08:51:48;22.33;;;3.95;;
32032;SDS011;31720;52.638;9.216;2023-11-19T08:54:49;21.02;;;3.28;;
32032;SDS011;31720;52.638;9.216;2023-11-19T08:57:51;21.25;;;4.35;;
32032;SDS011;31720;52.638;9.216;2023-11-19T09:00:52;33.35;;;4.03;;
32032;SDS011;31720;52.638;9.216;2023-11-19T09:03:55;29.80;;;4.00;;
32032;SDS011;31720;52.638;9.216;2023-11-19T09:06:57;22.40;;;2.42;;
32032;SDS011;31720;52.638;9.216;2023-11-19T09:09:59;23.77;;;3.45;;
32032;SDS011;31720;52.638;9.216;2023-11-19T09:13:00;26.83;;;3.28;;
32032;SDS011;31720;52.638;9.216;2023-11-19T09:16:02;25.50;;;4.35;;
32032;SDS011;31720;52.638;9.216;2023-11-19T09:19:05;23.67;;;3.30;;
32032;SDS011;31720;52.638;9.216;2023-11-19T09:22:07;30.70;;;3.53;;
32032;SDS011;31720;52.638;9.216;2023-11-19T09:25:08;29.80;;;3.42;;
32032;SDS011;31720;52.638;9.216;2023-11-19T09:28:10;28.38;;;3.08;;
32032;SDS011;31720;52.638;9.216;2023-11-19T09:31:14;31.20;;;4.07;;
32032;SDS011;31720;52.638;9.216;2023-11-19T09:34:17;22.33;;;3.08;;
32032;SDS011;31720;52.638;9.216;2023-11-19T09:37:19;27.02;;;4.45;;
32032;SDS011;31720;52.638;9.216;2023-11-19T09:40:20;18.98;;;2.90;;
32032;SDS011;31720;52.638;9.216;2023-11-19T09:43:21;23.33;;;2.45;;
32032;SDS011;31720;52.638;9.216;2023-11-19T09:46:23;21.30;;;2.75;;
32032;SDS011;31720;52.638;9.216;2023-11-19T09:49:27;16.70;;;3.05;;
32032;SDS011;31720;52.638;9.216;2023-11-19T09:52:29;26.48;;;3.55;;
32032;SDS011;31720;52.638;9.216;2023-11-19T09:55:31;18.17;;;4.00;;
32032;SDS011;31720;52.638;9.216;2023-11-19T09:58:33;18.02;;;2.47;;
32032;SDS011;31720;52.638;9.216;2023-11-19T10:01:35;24.20;;;3.67;;
32032;SDS011;31720;52.638;9.216;2023-11-19T10:04:39;31.17;;;3.50;;
32032;SDS011;31720;52.638;9.216;2023-11-19T10:07:43;30.58;;;2.78;;
32032;SDS011;31720;52.638;9.216;2023-11-19T10:10:45;20.10;;;2.92;;
32032;SDS011;31720;52.638;9.216;2023-11-19T10:13:46;22.63;;;3.33;;
32032;SDS011;31720;52.638;9.216;2023-11-19T10:16:48;18.50;;;2.85;;
32032;SDS011;31720;52.638;9.216;2023-11-19T10:19:51;17.40;;;2.40;;
32032;SDS011;31720;52.638;9.216;2023-11-19T10:22:53;18.85;;;3.00;;
32032;SDS011;31720;52.638;9.216;2023-11-19T10:25:55;25.02;;;3.70;;
32032;SDS011;31720;52.638;9.216;2023-11-19T10:29:04;20.98;;;2.47;;
32032;SDS011;31720;52.638;9.216;2023-11-19T10:32:06;14.05;;;2.80;;
32032;SDS011;31720;52.638;9.216;2023-11-19T10:35:09;17.40;;;2.83;;
32032;SDS011;31720;52.638;9.216;2023-11-19T10:38:15;24.20;;;2.92;;
32032;SDS011;31720;52.638;9.216;2023-11-19T10:41:26;21.42;;;3.35;;
32032;SDS011;31720;52.638;9.216;2023-11-19T10:44:31;14.00;;;2.30;;
32032;SDS011;31720;52.638;9.216;2023-11-19T10:47:35;23.95;;;3.05;;
32032;SDS011;31720;52.638;9.216;2023-11-19T10:50:41;13.02;;;2.50;;
32032;SDS011;31720;52.638;9.216;2023-11-19T10:53:43;20.73;;;2.92;;
32032;SDS011;31720;52.638;9.216;2023-11-19T10:56:46;17.33;;;3.22;;
32032;SDS011;31720;52.638;9.216;2023-11-19T10:59:55;26.23;;;2.70;;
32032;SDS011;31720;52.638;9.216;2023-11-19T11:03:05;21.95;;;3.90;;
32032;SDS011;31720;52.638;9.216;2023-11-19T11:06:13;15.90;;;2.55;;
32032;SDS011;31720;52.638;9.216;2023-11-19T11:09:14;33.45;;;4.20;;
32032;SDS011;31720;52.638;9.216;2023-11-19T11:12:16;23.27;;;3.42;;
32032;SDS011;31720;52.638;9.216;2023-11-19T11:15:24;29.13;;;4.15;;
32032;SDS011;31720;52.638;9.216;2023-11-19T11:18:29;22.27;;;3.00;;
32032;SDS011;31720;52.638;9.216;2023-11-19T11:21:32;19.92;;;2.85;;
32032;SDS011;31720;52.638;9.216;2023-11-19T11:28:05;22.50;;;2.58;;
32032;SDS011;31720;52.638;9.216;2023-11-19T11:31:22;18.52;;;3.08;;
32032;SDS011;31720;52.638;9.216;2023-11-19T11:34:36;23.73;;;3.00;;
32032;SDS011;31720;52.638;9.216;2023-11-19T11:37:53;29.88;;;3.30;;
32032;SDS011;31720;52.638;9.216;2023-11-19T11:41:18;22.58;;;2.45;;
32032;SDS011;31720;52.638;9.216;2023-11-19T11:44:31;29.35;;;3.08;;
32032;SDS011;31720;52.638;9.216;2023-11-19T11:51:21;16.23;;;3.22;;
32032;SDS011;31720;52.638;9.216;2023-11-19T11:55:05;17.05;;;3.28;;
32032;SDS011;31720;52.638;9.216;2023-11-19T11:58:09;17.85;;;2.85;;
32032;SDS011;31720;52.638;9.216;2023-11-19T12:01:10;21.75;;;3.55;;
32032;SDS011;31720;52.638;9.216;2023-11-19T12:07:22;22.55;;;3.50;;
32032;SDS011;31720;52.638;9.216;2023-11-19T12:10:26;30.65;;;3.38;;
32032;SDS011;31720;52.638;9.216;2023-11-19T12:13:47;23.77;;;2.90;;
32032;SDS011;31720;52.638;9.216;2023-11-19T12:16:57;30.25;;;3.78;;
32032;SDS011;31720;52.638;9.216;2023-11-19T12:20:05;16.50;;;3.10;;
32032;SDS011;31720;52.638;9.216;2023-11-19T12:23:08;21.20;;;3.25;;
32032;SDS011;31720;52.638;9.216;2023-11-19T12:26:21;22.52;;;2.85;;
32032;SDS011;31720;52.638;9.216;2023-11-19T12:29:41;20.25;;;2.80;;
32032;SDS011;31720;52.638;9.216;2023-11-19T12:32:44;22.63;;;3.97;;
32032;SDS011;31720;52.638;9.216;2023-11-19T12:35:47;16.27;;;2.75;;
32032;SDS011;31720;52.638;9.216;2023-11-19T12:38:49;18.90;;;2.42;;
32032;SDS011;31720;52.638;9.216;2023-11-19T12:41:53;32.40;;;5.00;;
32032;SDS011;31720;52.638;9.216;2023-11-19T12:44:55;29.60;;;2.60;;
32032;SDS011;31720;52.638;9.216;2023-11-19T12:48:04;22.33;;;3.30;;
32032;SDS011;31720;52.638;9.216;2023-11-19T12:51:06;18.05;;;3.65;;
32032;SDS011;31720;52.638;9.216;2023-11-19T12:54:08;16.60;;;2.20;;
32032;SDS011;31720;52.638;9.216;2023-11-19T12:57:10;33.25;;;3.88;;
32032;SDS011;31720;52.638;9.216;2023-11-19T13:00:18;16.13;;;3.28;;
32032;SDS011;31720;52.638;9.216;2023-11-19T13:03:29;15.50;;;2.55;;
32032;SDS011;31720;52.638;9.216;2023-11-19T13:06:31;27.77;;;5.43;;
32032;SDS011;31720;52.638;9.216;2023-11-19T13:09:33;14.85;;;2.67;;
32032;SDS011;31720;52.638;9.216;2023-11-19T13:12:35;23.20;;;2.50;;
32032;SDS011;31720;52.638;9.216;2023-11-19T13:15:37;20.65;;;2.88;;
32032;SDS011;31720;52.638;9.216;2023-11-19T13:18:40;20.80;;;3.38;;
32032;SDS011;31720;52.638;9.216;2023-11-19T13:21:41;21.27;;;3.88;;
32032;SDS011;31720;52.638;9.216;2023-11-19T13:24:46;16.65;;;3.10;;
32032;SDS011;31720;52.638;9.216;2023-11-19T13:27:48;27.80;;;4.05;;
32032;SDS011;31720;52.638;9.216;2023-11-19T13:30:50;20.27;;;3.53;;
32032;SDS011;31720;52.638;9.216;2023-11-19T13:33:53;25.10;;;4.07;;
32032;SDS011;31720;52.638;9.216;2023-11-19T13:36:54;27.65;;;4.28;;
32032;SDS011;31720;52.638;9.216;2023-11-19T13:39:56;18.17;;;3.17;;
32032;SDS011;31720;52.638;9.216;2023-11-19T13:42:59;21.10;;;3.22;;
32032;SDS011;31720;52.638;9.216;2023-11-19T13:46:01;19.88;;;3.13;;
32032;SDS011;31720;52.638;9.216;2023-11-19T13:49:03;13.98;;;2.58;;
32032;SDS011;31720;52.638;9.216;2023-11-19T13:52:04;18.58;;;3.55;;
32032;SDS011;31720;52.638;9.216;2023-11-19T13:55:07;13.93;;;2.53;;
32032;SDS011;31720;52.638;9.216;2023-11-19T13:58:10;20.13;;;3.47;;
32032;SDS011;31720;52.638;9.216;2023-11-19T14:01:12;27.40;;;3.65;;
32032;SDS011;31720;52.638;9.216;2023-11-19T14:04:14;15.45;;;3.03;;
32032;SDS011;31720;52.638;9.216;2023-11-19T14:07:16;11.55;;;2.35;;
32032;SDS011;31720;52.638;9.216;2023-11-19T14:10:18;23.92;;;2.67;;
32032;SDS011;31720;52.638;9.216;2023-11-19T14:13:21;22.75;;;3.08;;
32032;SDS011;31720;52.638;9.216;2023-11-19T14:16:25;20.70;;;3.20;;
32032;SDS011;31720;52.638;9.216;2023-11-19T14:19:27;17.35;;;2.72;;
32032;SDS011;31720;52.638;9.216;2023-11-19T14:22:28;24.50;;;3.13;;
32032;SDS011;31720;52.638;9.216;2023-11-19T14:25:31;25.63;;;3.47;;
32032;SDS011;31720;52.638;9.216;2023-11-19T14:28:33;10.05;;;1.50;;
32032;SDS011;31720;52.638;9.216;2023-11-19T14:31:35;7.57;;;1.92;;
32032;SDS011;31720;52.638;9.216;2023-11-19T14:34:36;7.43;;;1.98;;
32032;SDS011;31720;52.638;9.216;2023-11-19T14:37:38;7.05;;;0.90;;
32032;SDS011;31720;52.638;9.216;2023-11-19T14:40:39;1.33;;;0.75;;
32032;SDS011;31720;52.638;9.216;2023-11-19T14:43:44;2.15;;;0.77;;
32032;SDS011;31720;52.638;9.216;2023-11-19T14:46:45;5.35;;;0.82;;
32032;SDS011;31720;52.638;9.216;2023-11-19T14:49:47;10.63;;;1.42;;
32032;SDS011;31720;52.638;9.216;2023-11-19T14:52:48;9.88;;;1.60;;
32032;SDS011;31720;52.638;9.216;2023-11-19T14:55:50;4.90;;;1.05;;
32032;SDS011;31720;52.638;9.216;2023-11-19T14:58:52;12.52;;;1.67;;
32032;SDS011;31720;52.638;9.216;2023-11-19T15:01:54;6.40;;;1.35;;
32032;SDS011;31720;52.638;9.216;2023-11-19T15:04:55;6.25;;;1.48;;
32032;SDS011;31720;52.638;9.216;2023-11-19T15:07:57;2.35;;;1.40;;
32032;SDS011;31720;52.638;9.216;2023-11-19T15:10:58;5.70;;;1.90;;
32032;SDS011;31720;52.638;9.216;2023-11-19T15:14:03;12.23;;;2.83;;
32032;SDS011;31720;52.638;9.216;2023-11-19T15:17:06;10.32;;;1.60;;
32032;SDS011;31720;52.638;9.216;2023-11-19T15:20:08;3.70;;;1.85;;
32032;SDS011;31720;52.638;9.216;2023-11-19T15:23:10;9.15;;;1.50;;
32032;SDS011;31720;52.638;9.216;2023-11-19T15:26:12;6.15;;;2.35;;
32032;SDS011;31720;52.638;9.216;2023-11-19T15:29:15;9.25;;;2.22;;
32032;SDS011;31720;52.638;9.216;2023-11-19T15:32:17;28.95;;;3.78;;
32032;SDS011;31720;52.638;9.216;2023-11-19T15:35:19;8.27;;;1.90;;
32032;SDS011;31720;52.638;9.216;2023-11-19T15:38:21;13.07;;;2.97;;
32032;SDS011;31720;52.638;9.216;2023-11-19T15:41:23;5.78;;;2.50;;
32032;SDS011;31720;52.638;9.216;2023-11-19T15:44:26;25.33;;;2.20;;
32032;SDS011;31720;52.638;9.216;2023-11-19T15:47:28;17.15;;;3.15;;
32032;SDS011;31720;52.638;9.216;2023-11-19T15:50:30;18.17;;;3.70;;
32032;SDS011;31720;52.638;9.216;2023-11-19T15:53:32;23.17;;;3.42;;
32032;SDS011;31720;52.638;9.216;2023-11-19T15:56:33;10.50;;;2.83;;
32032;SDS011;31720;52.638;9.216;2023-11-19T15:59:36;20.00;;;3.85;;
32032;SDS011;31720;52.638;9.216;2023-11-19T16:02:38;33.10;;;4.03;;
32032;SDS011;31720;52.638;9.216;2023-11-19T16:05:40;14.43;;;3.30;;
32032;SDS011;31720;52.638;9.216;2023-11-19T16:08:42;21.75;;;3.30;;
32032;SDS011;31720;52.638;9.216;2023-11-19T16:11:44;28.00;;;4.28;;
32032;SDS011;31720;52.638;9.216;2023-11-19T16:14:47;22.95;;;3.42;;
32032;SDS011;31720;52.638;9.216;2023-11-19T16:17:49;22.98;;;3.05;;
32032;SDS011;31720;52.638;9.216;2023-11-19T16:20:50;26.90;;;2.80;;
32032;SDS011;31720;52.638;9.216;2023-11-19T16:23:52;25.58;;;3.42;;
32032;SDS011;31720;52.638;9.216;2023-11-19T16:26:53;18.42;;;2.92;;
32032;SDS011;31720;52.638;9.216;2023-11-19T16:29:56;16.13;;;3.22;;
32032;SDS011;31720;52.638;9.216;2023-11-19T16:32:58;21.95;;;3.25;;
32032;SDS011;31720;52.638;9.216;2023-11-19T16:36:00;30.23;;;4.28;;
32032;SDS011;31720;52.638;9.216;2023-11-19T16:39:01;18.83;;;2.45;;
32032;SDS011;31720;52.638;9.216;2023-11-19T16:42:03;28.25;;;3.50;;
32032;SDS011;31720;52.638;9.216;2023-11-19T16:45:08;17.52;;;3.13;;
32032;SDS011;31720;52.638;9.216;2023-11-19T16:48:10;18.85;;;3.13;;
32032;SDS011;31720;52.638;9.216;2023-11-19T16:51:11;16.15;;;2.92;;
32032;SDS011;31720;52.638;9.216;2023-11-19T16:54:16;19.60;;;2.97;;
32032;SDS011;31720;52.638;9.216;2023-11-19T16:57:18;13.90;;;2.63;;
32032;SDS011;31720;52.638;9.216;2023-11-19T17:00:23;16.83;;;3.50;;
32032;SDS011;31720;52.638;9.216;2023-11-19T17:03:25;17.65;;;2.95;;
32032;SDS011;31720;52.638;9.216;2023-11-19T17:06:27;14.43;;;2.38;;
32032;SDS011;31720;52.638;9.216;2023-11-19T17:09:28;20.48;;;3.28;;
32032;SDS011;31720;52.638;9.216;2023-11-19T17:12:29;10.95;;;2.40;;
32032;SDS011;31720;52.638;9.216;2023-11-19T17:15:32;14.32;;;3.03;;
32032;SDS011;31720;52.638;9.216;2023-11-19T17:18:34;17.15;;;2.42;;
32032;SDS011;31720;52.638;9.216;2023-11-19T17:21:37;26.35;;;4.63;;
32032;SDS011;31720;52.638;9.216;2023-11-19T17:24:39;11.50;;;3.05;;
32032;SDS011;31720;52.638;9.216;2023-11-19T17:27:40;19.95;;;2.55;;
32032;SDS011;31720;52.638;9.216;2023-11-19T17:30:44;18.10;;;2.78;;
32032;SDS011;31720;52.638;9.216;2023-11-19T17:33:46;15.43;;;3.63;;
32032;SDS011;31720;52.638;9.216;2023-11-19T17:36:47;16.10;;;2.40;;
32032;SDS011;31720;52.638;9.216;2023-11-19T17:39:49;12.90;;;2.78;;
32032;SDS011;31720;52.638;9.216;2023-11-19T17:42:52;12.90;;;2.38;;
32032;SDS011;31720;52.638;9.216;2023-11-19T17:45:55;19.67;;;2.83;;
32032;SDS011;31720;52.638;9.216;2023-11-19T17:49:00;11.07;;;2.97;;
32032;SDS011;31720;52.638;9.216;2023-11-19T17:52:01;18.70;;;3.50;;
32032;SDS011;31720;52.638;9.216;2023-11-19T17:55:03;21.17;;;3.45;;
32032;SDS011;31720;52.638;9.216;2023-11-19T17:58:05;17.35;;;4.10;;
32032;SDS011;31720;52.638;9.216;2023-11-19T18:01:08;17.90;;;2.80;;
32032;SDS011;31720;52.638;9.216;2023-11-19T18:04:11;15.50;;;3.78;;
32032;SDS011;31720;52.638;9.216;2023-11-19T18:07:12;11.75;;;3.25;;
32032;SDS011;31720;52.638;9.216;2023-11-19T18:10:14;19.67;;;3.15;;
32032;SDS011;31720;52.638;9.216;2023-11-19T18:13:16;10.07;;;3.08;;
32032;SDS011;31720;52.638;9.216;2023-11-19T18:16:19;17.60;;;3.28;;
32032;SDS011;31720;52.638;9.216;2023-11-19T18:19:21;17.50;;;2.75;;